ADDS METAR Data INFO
IDs: Format: Raw Decoded Include TAF

Data at: 1612 UTC 14 Aug 2018

KSJT 141551Z 19011KT 10SM OVC022 26/20 A2998 RMK AO2 SLP131 T02560200
KSJT 141451Z 18013KT 10SM OVC019 25/19 A2998 RMK AO2 SLP129 T02500194 51008
KSJT 141431Z 20012G17KT 10SM BKN019 24/19 A2998 RMK AO2 T02440194
KSJT 141351Z 18007KT 10SM CLR 24/19 A2998 RMK AO2 SLP128 T02390194
KSJT 141251Z 18007KT 10SM CLR 23/20 A2996 RMK AO2 SLP123 T02330200
KSJT 141151Z 17006KT 10SM CLR 23/20 A2996 RMK AO2 SLP121 70007 T02280200 10228 20217 55000
KSJT 141051Z AUTO 00000KT 10SM CLR 23/20 A2994 RMK AO2 SLP117 T02280200
KSJT 140951Z AUTO 00000KT 8SM CLR 22/19 A2994 RMK AO2 SLP117 T02170194
KSJT 140851Z AUTO 12004KT 8SM CLR 22/19 A2996 RMK AO2 SLP121 T02170194 58006
KSJT 140751Z AUTO 00000KT 10SM CLR 22/19 A2996 RMK AO2 SLP122 T02220194
KSJT 140651Z AUTO 12003KT 10SM CLR 22/20 A2998 RMK AO2 SLP129 T02220200
KSJT 140551Z AUTO 13004KT 10SM CLR 23/20 A2997 RMK AO2 SLP127 T02280200 10283 20222 403000217 53007
KSJT 140451Z AUTO 00000KT 10SM CLR 23/20 A2997 RMK AO2 SLP126 T02330200
KSJT 140351Z AUTO 00000KT 10SM CLR 24/19 A2996 RMK AO2 SLP123 T02440194
KSJT 140251Z AUTO 22003KT 10SM CLR 25/19 A2995 RMK AO2 SLP121 T02500194 53003
KSJT 140151Z AUTO 18007KT 10SM CLR 26/19 A2994 RMK AO2 SLP118 T02610194
KSJT 140051Z 16008G16KT 10SM CLR 27/19 A2994 RMK AO2 SLP114 T02720194
KSJT 132351Z 18005KT 10SM CLR 28/19 A2994 RMK AO2 LTG DSNT E AND SE SLP116 T02830194 10300 20267 56006
KSJT 132251Z 17011KT 10SM FEW055 SCT075 28/19 A2995 RMK AO2 SLP118 T02830194
KSJT 132151Z 19012KT 10SM SCT032 BKN042 29/20 A2994 RMK AO2 LTG DSNT NE AND NW SLP116 T02940200
KSJT 132051Z 16013G21KT 10SM SCT029 BKN075 28/20 A2996 RMK AO2 LTG DSNT NE SLP122 T02780200 56020
KSJT 131951Z 16017G23KT 10SM SCT031 BKN042 OVC070 27/20 A2998 RMK AO2 LTG DSNT N SLP130 T02670200
KSJT 131851Z 19011KT 10SM FEW031 BKN038 OVC070 28/19 A3000 RMK AO2 SLP135 T02830194
KSJT 131759Z 20009KT 10SM FEW022 BKN031 OVC055 27/20 A3002 RMK AO2 LTG DSNT E T02720200
KSJT 131751Z 21010KT 10SM FEW023 BKN029 OVC050 27/20 A3002 RMK AO2 SLP143 60007 T02720200 10272 20217 58003
KSJT 131731Z 19010KT 10SM BKN025 OVC049 27/20 A3003 RMK AO2 T02670200
KSJT 131651Z 20008KT 10SM FEW017 BKN048 OVC100 24/20 A3004 RMK AO2 SLP151 T02440200
KSJT 131551Z 19007KT 10SM FEW049 BKN075 BKN100 23/20 A3004 RMK AO2 SLP153 T02330200
KSJT 131451Z 17006KT 10SM FEW044 BKN080 OVC100 22/20 A3003 RMK AO2 SLP150 60007 T02220200 50005
KSJT 131351Z 17004KT 10SM SCT018 OVC046 22/20 A3004 RMK AO2 RAB08E41 SLP153 P0007 T02220200
KSJT 131333Z 18003KT 6SM -RA BR BKN018 OVC037 22/20 A3004 RMK AO2 RAB08 P0007 T02220200
KSJT 131324Z 20004KT 2 1/2SM RA BR BKN020 OVC037 22/20 A3004 RMK AO2 VIS 1 1/2V5 RAB08 P0006 T02170200
KSJT 131317Z 18003KT 1 3/4SM -RA BR BKN020 BKN037 OVC065 22/20 A3004 RMK AO2 RAB08 P0004 T02170200
KSJT 131309Z 18005KT 2 1/2SM -RA BR FEW016 BKN020 OVC060 22/20 A3004 RMK AO2 RAB08 P0000 T02220200
KSJT 131251Z 16003KT 10SM SCT034 BKN065 OVC085 22/20 A3004 RMK AO2 SLP154 T02220200
KSJT 131151Z 16004KT 10SM BKN031 OVC100 22/20 A3001 RMK AO2 SLP145 60041 70271 T02220200 10222 20217 55003
KSJT 131100Z AUTO 17006KT 10SM SCT017 SCT065 BKN120 22/20 A3000 RMK AO2 T02220200
KSJT 131051Z AUTO 19005KT 10SM BKN017 BKN065 OVC120 22/20 A3000 RMK AO2 SLP140 T02220200
KSJT 130951Z AUTO 14003KT 10SM OVC016 22/21 A3001 RMK AO2 SLP145 T02220206
KSJT 130851Z AUTO 12005KT 10SM BKN019 22/20 A3002 RMK AO2 RAE06 SLP148 P0000 60041 T02170200 58008
KSJT 130842Z AUTO 11006KT 10SM BKN019 BKN049 OVC095 22/20 A3002 RMK AO2 RAE06 P0000 T02170200
KSJT 130751Z AUTO 10006KT 5SM -RA BR FEW007 BKN050 OVC080 22/21 A3003 RMK AO2 SLP151 P0032 T02170206
KSJT 130736Z AUTO 08005KT 3SM RA BR SCT009 BKN050 OVC060 22/20 A3004 RMK AO2 P0027 T02170200
KSJT 130725Z AUTO 09005KT 2 1/2SM +RA BR FEW005 BKN016 OVC026 22/20 A3004 RMK AO2 P0019 T02170200
KSJT 130718Z AUTO 10004KT 4SM -RA BR FEW005 SCT011 OVC018 22/20 A3005 RMK AO2 P0014 T02170200
KSJT 130706Z AUTO 10004KT 2 1/2SM RA BR FEW004 BKN017 OVC031 22/21 A3005 RMK AO2 P0009 T02220206
KSJT 130654Z AUTO 10004KT 3SM RA BR FEW004 BKN028 OVC033 22/21 A3005 RMK AO2 P0001 T02220206
KSJT 130651Z AUTO 10005KT 2 1/2SM RA BR FEW004 SCT018 OVC033 22/21 A3005 RMK AO2 RAB29 SLP157 P0009 T02220206
KSJT 130646Z AUTO 10006KT 2 1/2SM +RA BR FEW018 BKN028 OVC044 22/21 A3005 RMK AO2 RAB29 P0004
KSJT 130551Z AUTO 10006KT 10SM SCT005 SCT030 BKN040 22/21 A3005 RMK AO2 RAE01 SLP158 P0000 60003 T02220206 10233 20222 402330200 58002
KSJT 130549Z AUTO 09005KT 10SM SCT005 SCT030 BKN041 22/21 A3005 RMK AO2 RAE01 P0000
KSJT 130516Z AUTO 09006KT 10SM BKN005 BKN048 OVC065 22/21 A3006 RMK AO2 RAE01 P0000 T02220206
KSJT 130451Z AUTO 08006KT 3SM RA BR FEW006 BKN048 OVC060 23/21 A3006 RMK AO2 RAB44 SLP160 P0003 T02280206
KSJT 130441Z AUTO 10007KT 10SM FEW006 SCT038 OVC048 23/21 A3006 RMK AO2 T02280206